createdAt,value
2019-01-30T00:00:37.298Z,14.53
2019-01-30T00:03:05.786Z,11.18
2019-01-30T00:05:34.533Z,14.18
2019-01-30T00:08:02.093Z,13.28
2019-01-30T00:10:29.533Z,9.18
2019-01-30T00:12:57.014Z,10.55
2019-01-30T00:15:24.481Z,8.93
2019-01-30T00:17:51.901Z,10.48
2019-01-30T00:20:19.304Z,10.93
2019-01-30T00:22:46.708Z,14.30
2019-01-30T00:25:14.512Z,11.57
2019-01-30T00:27:41.923Z,10.90
2019-01-30T00:30:10.886Z,15.35
2019-01-30T00:32:38.346Z,10.68
2019-01-30T00:35:07.401Z,10.20
2019-01-30T00:37:34.806Z,12.25
2019-01-30T00:40:02.232Z,10.40
2019-01-30T00:42:29.650Z,10.68
2019-01-30T00:44:57.056Z,13.32
2019-01-30T00:47:24.461Z,13.70
2019-01-30T00:49:51.906Z,10.43
2019-01-30T00:52:19.337Z,10.70
2019-01-30T00:54:46.741Z,10.18
2019-01-30T00:57:14.175Z,12.13
2019-01-30T00:59:41.574Z,11.45
2019-01-30T01:02:09.052Z,10.25
2019-01-30T01:04:36.566Z,11.80
2019-01-30T01:07:04.245Z,9.25
2019-01-30T01:09:31.743Z,12.90
2019-01-30T01:11:59.182Z,11.73
2019-01-30T01:14:26.595Z,11.78
2019-01-30T01:16:54.086Z,11.85
2019-01-30T01:19:21.513Z,9.53
2019-01-30T01:21:48.939Z,8.85
2019-01-30T01:24:16.335Z,8.53
2019-01-30T01:26:43.754Z,11.50
2019-01-30T01:29:11.160Z,10.13
2019-01-30T01:31:38.581Z,9.25
2019-01-30T01:34:05.991Z,12.25
2019-01-30T01:36:33.517Z,13.95
2019-01-30T01:39:00.919Z,11.43
2019-01-30T01:41:28.319Z,10.93
2019-01-30T01:43:55.743Z,10.75
2019-01-30T01:46:23.166Z,12.05
2019-01-30T01:48:50.565Z,10.10
2019-01-30T01:51:18.021Z,11.22
2019-01-30T01:53:45.418Z,13.10
2019-01-30T01:56:12.826Z,10.35
2019-01-30T01:58:40.249Z,13.38
2019-01-30T02:01:07.742Z,12.78
2019-01-30T02:03:35.148Z,13.68
2019-01-30T02:06:02.569Z,10.05
2019-01-30T02:08:29.960Z,9.25
2019-01-30T02:10:57.449Z,8.38
2019-01-30T02:13:24.946Z,13.60
2019-01-30T02:15:52.374Z,13.62
2019-01-30T02:18:19.787Z,10.23
2019-01-30T02:20:47.209Z,12.20
2019-01-30T02:23:14.644Z,11.35
2019-01-30T02:25:42.162Z,14.45
2019-01-30T02:28:09.595Z,13.83
2019-01-30T02:30:47.246Z,9.55
2019-01-30T02:33:06.086Z,12.10
2019-01-30T02:35:33.484Z,15.48
2019-01-30T02:38:00.891Z,10.15
2019-01-30T02:40:28.345Z,16.12
2019-01-30T02:42:55.750Z,12.13
2019-01-30T02:45:24.119Z,15.32
2019-01-30T02:47:51.546Z,16.87
2019-01-30T02:50:19.413Z,15.90
2019-01-30T02:52:46.915Z,18.70
2019-01-30T02:55:15.187Z,15.75
2019-01-30T02:57:42.661Z,15.68
2019-01-30T03:00:11.626Z,13.95
2019-01-30T03:02:39.057Z,13.22
2019-01-30T03:05:08.000Z,16.37
2019-01-30T03:07:35.406Z,12.75
2019-01-30T03:10:02.912Z,17.98
2019-01-30T03:12:30.333Z,17.23
2019-01-30T03:14:57.745Z,15.80
2019-01-30T03:17:25.153Z,16.77
2019-01-30T03:19:52.600Z,16.23
2019-01-30T03:22:20.025Z,18.45
2019-01-30T03:24:47.433Z,16.02
2019-01-30T03:27:14.918Z,21.65
2019-01-30T03:29:42.349Z,15.03
2019-01-30T03:32:09.779Z,22.17
2019-01-30T03:34:37.185Z,16.37
2019-01-30T03:37:04.613Z,18.20
2019-01-30T03:39:32.022Z,15.55
2019-01-30T03:41:59.571Z,16.57
2019-01-30T03:44:26.978Z,15.85
2019-01-30T03:46:54.415Z,22.77
2019-01-30T03:49:21.815Z,25.12
2019-01-30T03:51:49.251Z,18.12
2019-01-30T03:54:16.694Z,15.23
2019-01-30T03:56:44.103Z,22.20
2019-01-30T03:59:11.508Z,22.98
2019-01-30T04:01:38.946Z,17.25
2019-01-30T04:04:06.348Z,13.53
2019-01-30T04:06:33.780Z,16.93
2019-01-30T04:09:01.213Z,23.35
2019-01-30T04:11:28.613Z,20.27
2019-01-30T04:13:56.047Z,19.80
2019-01-30T04:16:23.454Z,24.25
2019-01-30T04:18:50.904Z,17.52
2019-01-30T04:21:18.318Z,17.90
2019-01-30T04:23:45.722Z,18.37
2019-01-30T04:26:13.149Z,19.87
2019-01-30T04:28:40.556Z,16.37
2019-01-30T04:31:07.992Z,18.95
2019-01-30T04:33:35.389Z,19.77
2019-01-30T04:36:02.822Z,14.20
2019-01-30T04:38:30.227Z,21.85
2019-01-30T04:40:57.646Z,21.10
2019-01-30T04:43:25.078Z,20.05
2019-01-30T04:45:52.481Z,17.87
2019-01-30T04:48:19.912Z,15.43
2019-01-30T04:50:47.395Z,22.27
2019-01-30T04:53:14.779Z,18.85
2019-01-30T04:55:42.177Z,17.20
2019-01-30T04:58:09.589Z,16.93
2019-01-30T05:00:37.013Z,17.57
2019-01-30T05:03:04.520Z,23.30
2019-01-30T05:05:31.929Z,16.70
2019-01-30T05:07:59.329Z,16.62
2019-01-30T05:10:29.466Z,19.12
2019-01-30T05:12:56.898Z,19.70
2019-01-30T05:15:24.314Z,21.27
2019-01-30T05:17:51.759Z,19.23
2019-01-30T05:20:20.051Z,15.25
2019-01-30T05:22:47.502Z,21.35
2019-01-30T05:25:15.185Z,17.85
2019-01-30T05:27:42.667Z,18.82
2019-01-30T05:30:11.654Z,23.92
2019-01-30T05:32:39.067Z,25.97
2019-01-30T05:35:06.750Z,19.90
2019-01-30T05:37:34.181Z,20.52
2019-01-30T05:40:02.286Z,20.02
2019-01-30T05:42:29.718Z,19.05
2019-01-30T05:44:57.135Z,18.10
2019-01-30T05:47:24.562Z,18.67
2019-01-30T05:49:51.971Z,17.62
2019-01-30T05:52:19.385Z,18.57
2019-01-30T05:54:47.179Z,21.05
2019-01-30T05:57:14.618Z,17.00
2019-01-30T05:59:42.046Z,24.18
2019-01-30T06:02:12.170Z,22.22
2019-01-30T06:04:38.538Z,20.88
2019-01-30T06:07:05.938Z,23.27
2019-01-30T06:09:33.370Z,23.87
2019-01-30T06:12:00.796Z,41.18
2019-01-30T06:14:28.203Z,36.38
2019-01-30T06:16:55.630Z,24.60
2019-01-30T06:19:23.043Z,28.10
2019-01-30T06:21:50.498Z,32.33
2019-01-30T06:24:17.911Z,24.27
2019-01-30T06:26:45.329Z,26.45
2019-01-30T06:29:12.743Z,23.40
2019-01-30T06:31:40.149Z,24.18
2019-01-30T06:34:07.593Z,26.50
2019-01-30T06:36:34.998Z,19.12
2019-01-30T06:39:02.444Z,23.62
2019-01-30T06:41:29.854Z,26.65
2019-01-30T06:43:57.266Z,24.32
2019-01-30T06:46:24.688Z,24.18
2019-01-30T06:48:52.097Z,19.90
2019-01-30T06:51:19.519Z,25.25
2019-01-30T06:53:46.924Z,31.35
2019-01-30T06:56:14.340Z,25.08
2019-01-30T06:58:41.759Z,25.52
2019-01-30T07:01:09.215Z,16.82
2019-01-30T07:03:36.631Z,22.40
2019-01-30T07:06:04.305Z,27.37
2019-01-30T07:08:31.755Z,25.82
2019-01-30T07:10:59.205Z,25.95
2019-01-30T07:13:26.621Z,29.95
2019-01-30T07:15:54.038Z,24.43
2019-01-30T07:18:21.481Z,25.65
2019-01-30T07:20:48.882Z,26.75
2019-01-30T07:23:16.360Z,22.52
2019-01-30T07:25:43.803Z,27.30
2019-01-30T07:28:11.218Z,24.95
2019-01-30T07:30:38.650Z,24.55
2019-01-30T07:33:06.132Z,25.80
2019-01-30T07:35:33.558Z,24.92
2019-01-30T07:38:00.961Z,25.23
2019-01-30T07:40:28.415Z,23.60
2019-01-30T07:42:55.820Z,27.85
2019-01-30T07:45:24.388Z,24.52
2019-01-30T07:47:51.845Z,24.40
2019-01-30T07:50:19.423Z,23.87
2019-01-30T07:52:46.899Z,22.42
2019-01-30T07:55:15.298Z,21.17
2019-01-30T07:57:42.698Z,23.07
2019-01-30T08:00:17.996Z,19.52
2019-01-30T08:02:52.959Z,21.93
2019-01-30T08:05:14.664Z,22.93
2019-01-30T08:07:42.140Z,26.57
2019-01-30T08:10:13.318Z,20.27
2019-01-30T08:12:40.823Z,22.70
2019-01-30T08:15:09.770Z,20.48
2019-01-30T08:17:37.222Z,25.75
2019-01-30T08:20:06.169Z,20.00
2019-01-30T08:22:33.609Z,19.05
2019-01-30T08:25:01.206Z,19.85
2019-01-30T08:27:28.991Z,21.65
2019-01-30T08:29:56.880Z,22.52
2019-01-30T08:32:24.613Z,22.35
2019-01-30T08:34:52.193Z,16.35
2019-01-30T08:37:19.603Z,19.75
2019-01-30T08:39:47.019Z,17.60
2019-01-30T08:42:14.529Z,17.12
2019-01-30T08:44:46.971Z,16.67
2019-01-30T08:47:11.003Z,19.85
2019-01-30T08:49:40.318Z,20.82
2019-01-30T08:52:07.489Z,16.25
2019-01-30T08:54:34.894Z,16.45
2019-01-30T08:57:02.337Z,17.30
2019-01-30T08:59:29.767Z,18.85
2019-01-30T09:01:57.557Z,16.40
2019-01-30T09:04:25.309Z,15.05
2019-01-30T09:06:52.744Z,16.48
2019-01-30T09:09:21.702Z,17.55
2019-01-30T09:11:49.256Z,15.63
2019-01-30T09:14:16.915Z,17.12
2019-01-30T09:16:44.446Z,16.37
2019-01-30T09:19:28.014Z,18.67
2019-01-30T09:21:56.036Z,18.73
2019-01-30T09:24:23.555Z,13.50
2019-01-30T09:26:50.994Z,15.83
2019-01-30T09:29:18.507Z,17.60
2019-01-30T09:32:07.415Z,19.17
2019-01-30T09:34:34.883Z,16.60
2019-01-30T09:37:02.361Z,17.37
2019-01-30T09:39:29.980Z,15.65
2019-01-30T09:41:57.495Z,14.33
2019-01-30T09:44:24.928Z,17.82
2019-01-30T09:46:52.390Z,17.32
2019-01-30T09:49:19.913Z,16.37
2019-01-30T09:51:47.354Z,17.67
2019-01-30T09:54:14.991Z,16.25
2019-01-30T09:57:02.149Z,18.15
2019-01-30T09:59:29.622Z,16.67
2019-01-30T10:01:57.181Z,17.32
2019-01-30T10:04:24.653Z,16.15
2019-01-30T10:06:52.117Z,15.70
2019-01-30T10:09:19.577Z,15.85
2019-01-30T10:11:47.015Z,14.80
2019-01-30T10:14:14.476Z,14.55
2019-01-30T10:16:42.294Z,14.90
2019-01-30T10:19:29.153Z,13.38
2019-01-30T10:21:56.628Z,14.75
2019-01-30T10:24:31.245Z,17.30
2019-01-30T10:26:58.734Z,13.62
2019-01-30T10:29:26.275Z,14.13
2019-01-30T10:31:53.768Z,14.75
2019-01-30T10:34:21.203Z,12.78
2019-01-30T10:36:48.718Z,13.10
2019-01-30T10:39:16.159Z,14.53
2019-01-30T10:42:02.896Z,14.07
2019-01-30T10:44:30.367Z,13.00
2019-01-30T10:46:57.877Z,15.48
2019-01-30T10:49:25.409Z,13.90
2019-01-30T10:51:52.888Z,13.43
2019-01-30T10:54:20.505Z,14.33
2019-01-30T10:56:47.942Z,13.68
2019-01-30T10:59:15.473Z,12.73
2019-01-30T11:02:02.438Z,12.18
2019-01-30T11:04:29.847Z,13.38
2019-01-30T11:06:57.452Z,11.78
2019-01-30T11:09:24.898Z,14.23
2019-01-30T11:11:54.675Z,13.55
2019-01-30T11:14:42.952Z,17.40
2019-01-30T11:17:10.509Z,16.15
2019-01-30T11:19:37.935Z,16.55
2019-01-30T11:22:37.377Z,14.30
2019-01-30T11:27:59.852Z,18.65
2019-01-30T11:36:31.333Z,14.50
2019-01-30T11:41:53.354Z,15.80
2019-01-30T11:44:21.250Z,12.65
2019-01-30T11:46:48.699Z,16.23
2019-01-30T11:51:50.951Z,14.98
2019-01-30T11:54:18.434Z,11.50
2019-01-30T11:56:45.842Z,17.50
2019-01-30T11:59:13.267Z,14.80
2019-01-30T12:01:40.705Z,15.10
2019-01-30T12:04:17.474Z,13.90
2019-01-30T12:06:37.384Z,14.07
2019-01-30T12:09:06.590Z,11.90
2019-01-30T12:11:34.104Z,14.05
2019-01-30T12:14:01.604Z,16.73
2019-01-30T12:16:28.989Z,13.68
2019-01-30T12:18:56.397Z,16.40
2019-01-30T12:21:23.827Z,17.20
2019-01-30T12:23:51.230Z,18.57
2019-01-30T12:26:18.667Z,17.02
2019-01-30T12:28:47.013Z,17.52
2019-01-30T12:31:16.844Z,16.70
2019-01-30T12:33:50.063Z,19.20
2019-01-30T12:36:18.450Z,17.92
2019-01-30T12:38:47.727Z,13.75
2019-01-30T12:41:16.783Z,15.63
2019-01-30T12:43:45.425Z,16.25
2019-01-30T12:46:13.758Z,17.17
2019-01-30T12:48:42.578Z,10.50
2019-01-30T12:51:11.329Z,15.45
2019-01-30T12:53:41.754Z,14.58
2019-01-30T12:56:09.546Z,14.60
2019-01-30T12:58:37.699Z,12.82
2019-01-30T13:01:07.195Z,13.30
2019-01-30T13:03:35.793Z,14.78
2019-01-30T13:06:05.628Z,16.67
2019-01-30T13:08:35.026Z,15.98
2019-01-30T13:11:03.607Z,13.60
2019-01-30T13:13:33.302Z,18.62
2019-01-30T13:16:03.209Z,12.95
2019-01-30T13:18:32.629Z,13.00
2019-01-30T13:21:02.295Z,12.23
2019-01-30T13:23:31.302Z,15.95
2019-01-30T13:25:59.792Z,15.75
2019-01-30T13:28:28.487Z,12.93
2019-01-30T13:30:56.581Z,15.48
2019-01-30T13:33:26.708Z,15.78
2019-01-30T13:35:56.520Z,15.78
2019-01-30T13:38:25.180Z,15.00
2019-01-30T13:40:54.931Z,16.55
2019-01-30T13:43:23.709Z,16.73
2019-01-30T13:45:52.148Z,15.18
2019-01-30T13:48:21.942Z,14.43
2019-01-30T13:50:50.498Z,13.88
2019-01-30T13:53:20.163Z,14.65
2019-01-30T13:55:50.131Z,15.45
2019-01-30T13:58:18.513Z,14.15
2019-01-30T14:00:46.317Z,16.00
2019-01-30T14:03:14.668Z,14.10
2019-01-30T14:05:43.179Z,16.90
2019-01-30T14:08:11.257Z,16.67
2019-01-30T14:10:39.676Z,18.52
2019-01-30T14:13:08.359Z,15.08
2019-01-30T14:15:36.856Z,19.80
2019-01-30T14:18:04.824Z,14.55
2019-01-30T14:20:33.400Z,15.45
2019-01-30T14:23:00.989Z,19.00
2019-01-30T14:25:30.755Z,16.32
2019-01-30T14:27:59.937Z,20.65
2019-01-30T14:30:29.898Z,18.60
2019-01-30T14:32:58.811Z,15.10
2019-01-30T14:35:30.914Z,12.03
2019-01-30T14:37:58.385Z,16.10
2019-01-30T14:40:27.077Z,13.65
2019-01-30T14:42:58.229Z,16.90
2019-01-30T14:48:14.608Z,11.75
2019-01-30T14:50:42.100Z,15.72
2019-01-30T14:53:11.782Z,16.57
2019-01-30T14:55:40.593Z,18.70
2019-01-30T14:58:08.905Z,15.28
2019-01-30T15:00:38.609Z,15.30
2019-01-30T15:03:07.555Z,16.42
2019-01-30T15:05:36.619Z,13.75
2019-01-30T15:08:05.242Z,17.20
2019-01-30T15:10:34.073Z,16.75
2019-01-30T15:13:02.962Z,16.45
2019-01-30T15:15:32.641Z,12.85
2019-01-30T15:18:01.622Z,15.18
2019-01-30T15:20:30.942Z,21.40
2019-01-30T15:23:01.351Z,17.50
2019-01-30T15:25:28.899Z,15.35
2019-01-30T15:27:56.681Z,15.55
2019-01-30T15:30:26.606Z,16.50
2019-01-30T15:32:55.635Z,14.00
2019-01-30T15:35:33.291Z,15.78
2019-01-30T15:37:54.559Z,14.53
2019-01-30T15:40:28.330Z,15.50
2019-01-30T15:42:56.109Z,15.15
2019-01-30T15:45:24.621Z,15.20
2019-01-30T15:47:53.621Z,17.37
2019-01-30T15:50:25.664Z,17.95
2019-01-30T15:52:53.538Z,14.13
2019-01-30T15:55:21.740Z,15.98
2019-01-30T15:57:50.418Z,17.45
2019-01-30T16:00:22.592Z,12.73
2019-01-30T16:02:50.018Z,16.10
2019-01-30T16:05:17.586Z,16.23
2019-01-30T16:07:45.069Z,14.80
2019-01-30T16:10:13.858Z,15.35
2019-01-30T16:12:41.866Z,18.25
2019-01-30T16:15:10.816Z,14.35
2019-01-30T16:17:38.247Z,16.50
2019-01-30T16:20:07.198Z,21.07
2019-01-30T16:22:34.715Z,17.07
2019-01-30T16:25:08.650Z,11.78
2019-01-30T16:27:31.230Z,15.78
2019-01-30T16:29:58.634Z,15.55
2019-01-30T16:32:26.049Z,19.77
2019-01-30T16:34:53.496Z,14.68
2019-01-30T16:37:20.908Z,16.15
2019-01-30T16:39:48.361Z,13.53
2019-01-30T16:42:15.787Z,17.55
2019-01-30T16:44:43.229Z,20.40
2019-01-30T16:47:10.690Z,13.95
2019-01-30T16:49:38.115Z,16.17
2019-01-30T16:52:08.130Z,15.68
2019-01-30T16:54:35.588Z,16.27
2019-01-30T16:57:03.021Z,16.07
2019-01-30T16:59:30.485Z,15.48
2019-01-30T17:01:57.929Z,16.73
2019-01-30T17:04:25.389Z,14.00
2019-01-30T17:06:52.809Z,16.35
2019-01-30T17:09:20.258Z,18.50
2019-01-30T17:11:47.719Z,18.40
2019-01-30T17:14:15.195Z,17.00
2019-01-30T17:16:42.623Z,18.02
2019-01-30T17:19:10.129Z,16.97
2019-01-30T17:21:37.527Z,16.23
2019-01-30T17:24:05.158Z,15.98
2019-01-30T17:26:32.562Z,15.05
2019-01-30T17:28:59.971Z,18.50
2019-01-30T17:31:27.418Z,21.45
2019-01-30T17:33:54.852Z,15.30
2019-01-30T17:36:22.334Z,19.25
2019-01-30T17:38:49.781Z,16.23
2019-01-30T17:41:17.197Z,18.75
2019-01-30T17:43:44.601Z,14.63
2019-01-30T17:46:12.027Z,17.82
2019-01-30T17:48:39.434Z,18.52
2019-01-30T17:51:06.975Z,18.48
2019-01-30T17:53:34.378Z,16.05
2019-01-30T17:56:01.835Z,14.30
2019-01-30T17:58:29.235Z,19.00
2019-01-30T18:00:58.309Z,18.48
2019-01-30T18:03:26.462Z,17.85
2019-01-30T18:05:53.994Z,16.97
2019-01-30T18:08:21.578Z,21.30
2019-01-30T18:10:53.934Z,15.60
2019-01-30T18:13:21.403Z,14.28
2019-01-30T18:15:50.453Z,14.85
2019-01-30T18:18:17.867Z,17.30
2019-01-30T18:20:45.296Z,16.60
2019-01-30T18:23:12.961Z,16.75
2019-01-30T18:25:40.752Z,21.07
2019-01-30T18:28:08.222Z,17.42
2019-01-30T18:30:36.025Z,20.08
2019-01-30T18:33:04.096Z,15.80
2019-01-30T18:35:32.483Z,15.95
2019-01-30T18:37:59.949Z,14.83
2019-01-30T18:40:28.589Z,19.75
2019-01-30T18:42:57.200Z,17.98
2019-01-30T18:45:28.639Z,16.97
2019-01-30T18:47:56.330Z,18.30
2019-01-30T18:50:25.773Z,27.40
2019-01-30T18:52:54.379Z,15.72
2019-01-30T18:55:22.943Z,18.73
2019-01-30T18:57:50.512Z,21.75
2019-01-30T19:00:28.121Z,23.18
2019-01-30T19:02:56.429Z,20.27
2019-01-30T19:05:23.922Z,24.72
2019-01-30T19:07:51.384Z,20.35
2019-01-30T19:10:18.853Z,21.70
2019-01-30T19:12:46.672Z,21.87
2019-01-30T19:15:18.581Z,20.32
2019-01-30T19:17:46.593Z,21.45
2019-01-30T19:20:15.910Z,16.55
2019-01-30T19:22:43.349Z,15.45
2019-01-30T19:25:10.766Z,19.25
2019-01-30T19:27:38.243Z,15.63
2019-01-30T19:30:07.195Z,20.72
2019-01-30T19:32:34.628Z,15.43
2019-01-30T19:35:02.078Z,15.88
2019-01-30T19:37:29.500Z,16.80
2019-01-30T19:39:57.174Z,16.93
2019-01-30T19:42:24.630Z,14.85
2019-01-30T19:44:52.081Z,17.25
2019-01-30T19:47:19.500Z,13.68
2019-01-30T19:49:46.971Z,17.73
2019-01-30T19:52:14.352Z,14.75
2019-01-30T19:54:41.775Z,18.00
2019-01-30T19:57:09.207Z,19.05
2019-01-30T19:59:36.795Z,15.95
2019-01-30T20:02:04.585Z,19.92
2019-01-30T20:04:31.984Z,21.40
2019-01-30T20:06:59.421Z,18.40
2019-01-30T20:09:26.894Z,16.77
2019-01-30T20:11:54.343Z,17.82
2019-01-30T20:14:21.777Z,19.82
2019-01-30T20:16:49.223Z,18.57
2019-01-30T20:19:16.626Z,20.77
2019-01-30T20:21:44.057Z,15.95
2019-01-30T20:24:11.502Z,21.93
2019-01-30T20:26:38.908Z,17.62
2019-01-30T20:29:06.365Z,19.32
2019-01-30T20:31:33.774Z,21.97
2019-01-30T20:34:09.997Z,19.82
2019-01-30T20:36:30.378Z,20.02
2019-01-30T20:38:57.915Z,19.17
2019-01-30T20:41:25.366Z,17.37
2019-01-30T20:43:52.788Z,22.80
2019-01-30T20:46:20.216Z,20.90
2019-01-30T20:48:51.607Z,17.37
2019-01-30T20:51:16.710Z,18.45
2019-01-30T20:53:44.152Z,18.35
2019-01-30T20:56:11.605Z,22.05
2019-01-30T20:58:39.014Z,19.77
2019-01-30T21:01:06.496Z,19.60
2019-01-30T21:03:33.967Z,18.65
2019-01-30T21:06:01.442Z,17.98
2019-01-30T21:08:28.836Z,20.72
2019-01-30T21:10:56.298Z,21.55
2019-01-30T21:13:23.700Z,19.15
2019-01-30T21:15:51.116Z,18.45
2019-01-30T21:18:18.681Z,19.98
2019-01-30T21:20:46.087Z,17.90
2019-01-30T21:23:13.514Z,20.92
2019-01-30T21:25:40.933Z,18.82
2019-01-30T21:28:08.346Z,20.50
2019-01-30T21:30:36.870Z,20.27
2019-01-30T21:33:04.654Z,20.00
2019-01-30T21:35:32.073Z,21.25
2019-01-30T21:37:59.597Z,20.40
2019-01-30T21:40:27.016Z,21.42
2019-01-30T21:42:54.494Z,20.88
2019-01-30T21:45:23.513Z,19.85
2019-01-30T21:47:51.014Z,20.32
2019-01-30T21:50:18.717Z,20.05
2019-01-30T21:52:46.172Z,18.90
2019-01-30T21:55:17.428Z,21.37
2019-01-30T21:57:44.910Z,19.35
2019-01-30T22:00:16.923Z,20.88
2019-01-30T22:02:44.290Z,23.18
2019-01-30T22:05:11.731Z,21.33
2019-01-30T22:07:39.142Z,19.80
2019-01-30T22:10:09.795Z,25.08
2019-01-30T22:12:37.239Z,20.02
2019-01-30T22:15:06.182Z,21.30
2019-01-30T22:17:33.604Z,21.00
2019-01-30T22:20:01.017Z,20.20
2019-01-30T22:22:29.392Z,21.52
2019-01-30T22:24:57.180Z,22.85
2019-01-30T22:27:24.581Z,22.50
2019-01-30T22:29:52.033Z,22.80
2019-01-30T22:32:19.439Z,23.00
2019-01-30T22:34:46.850Z,24.10
2019-01-30T22:37:14.275Z,20.97
2019-01-30T22:39:41.689Z,20.75
2019-01-30T22:42:09.102Z,19.73
2019-01-30T22:44:36.850Z,19.55
2019-01-30T22:47:04.329Z,21.62
2019-01-30T22:49:31.735Z,22.32
2019-01-30T22:51:59.731Z,35.52
2019-01-30T22:54:27.145Z,25.75
2019-01-30T22:56:54.569Z,42.55
2019-01-30T22:59:22.011Z,26.10
2019-01-30T23:01:49.601Z,22.00
2019-01-30T23:04:18.551Z,23.30
2019-01-30T23:06:47.513Z,22.42
2019-01-30T23:09:19.225Z,19.80
2019-01-30T23:11:48.249Z,25.65
2019-01-30T23:14:15.648Z,26.40
2019-01-30T23:16:50.873Z,20.02
2019-01-30T23:19:19.831Z,23.12
2019-01-30T23:21:51.712Z,23.20
2019-01-30T23:24:26.524Z,20.50
2019-01-30T23:26:55.519Z,23.40
2019-01-30T23:29:30.195Z,21.50
2019-01-30T23:31:59.190Z,20.65
2019-01-30T23:34:34.099Z,22.00
2019-01-30T23:37:09.246Z,19.27
2019-01-30T23:39:53.429Z,21.95
2019-01-30T23:42:34.481Z,18.40
2019-01-30T23:45:09.384Z,17.92
2019-01-30T23:47:38.358Z,17.70
2019-01-30T23:50:13.443Z,17.82
2019-01-30T23:52:48.573Z,19.10
2019-01-30T23:55:20.302Z,16.20
2019-01-30T23:57:49.246Z,16.65
